sensor_id;sensor_type;location;lat;lon;timestamp;temperature;humidity
10213;DHT22;5150;51.400;6.692;2022-09-27T00:01:47;19.20;78.50
10213;DHT22;5150;51.400;6.692;2022-09-27T00:05:10;19.20;79.00
10213;DHT22;5150;51.400;6.692;2022-09-27T00:08:34;19.20;80.50
10213;DHT22;5150;51.400;6.692;2022-09-27T00:11:57;19.20;85.10
10213;DHT22;5150;51.400;6.692;2022-09-27T00:15:21;19.20;86.30
10213;DHT22;5150;51.400;6.692;2022-09-27T00:18:45;19.20;87.70
10213;DHT22;5150;51.400;6.692;2022-09-27T00:22:08;19.20;85.80
10213;DHT22;5150;51.400;6.692;2022-09-27T00:25:31;19.20;86.80
10213;DHT22;5150;51.400;6.692;2022-09-27T00:28:54;19.20;88.20
10213;DHT22;5150;51.400;6.692;2022-09-27T00:32:17;19.20;87.40
10213;DHT22;5150;51.400;6.692;2022-09-27T00:35:42;19.20;86.60
10213;DHT22;5150;51.400;6.692;2022-09-27T00:39:05;19.20;90.60
10213;DHT22;5150;51.400;6.692;2022-09-27T00:42:28;19.20;90.80
10213;DHT22;5150;51.400;6.692;2022-09-27T00:45:53;19.20;89.30
10213;DHT22;5150;51.400;6.692;2022-09-27T00:49:20;19.20;88.80
10213;DHT22;5150;51.400;6.692;2022-09-27T00:52:51;19.20;90.10
10213;DHT22;5150;51.400;6.692;2022-09-27T00:56:18;19.20;86.60
10213;DHT22;5150;51.400;6.692;2022-09-27T00:59:44;19.20;85.40
10213;DHT22;5150;51.400;6.692;2022-09-27T01:03:08;19.20;85.90
10213;DHT22;5150;51.400;6.692;2022-09-27T01:06:33;19.20;85.00
10213;DHT22;5150;51.400;6.692;2022-09-27T01:09:58;19.20;84.30
10213;DHT22;5150;51.400;6.692;2022-09-27T01:13:29;19.20;86.70
10213;DHT22;5150;51.400;6.692;2022-09-27T01:17:00;19.20;90.90
10213;DHT22;5150;51.400;6.692;2022-09-27T01:21:03;19.20;92.80
10213;DHT22;5150;51.400;6.692;2022-09-27T01:24:51;19.10;99.70
10213;DHT22;5150;51.400;6.692;2022-09-27T01:28:21;19.10;99.90
10213;DHT22;5150;51.400;6.692;2022-09-27T01:31:54;19.10;99.90
10213;DHT22;5150;51.400;6.692;2022-09-27T01:35:30;19.10;99.90
10213;DHT22;5150;51.400;6.692;2022-09-27T01:39:09;19.10;99.90
10213;DHT22;5150;51.400;6.692;2022-09-27T01:43:08;19.10;99.90
10213;DHT22;5150;51.400;6.692;2022-09-27T01:46:38;19.10;99.90
10213;DHT22;5150;51.400;6.692;2022-09-27T01:50:13;19.10;99.90
10213;DHT22;5150;51.400;6.692;2022-09-27T01:53:40;19.10;99.90
10213;DHT22;5150;51.400;6.692;2022-09-27T01:57:19;19.10;99.90
10213;DHT22;5150;51.400;6.692;2022-09-27T02:00:47;19.10;99.90
10213;DHT22;5150;51.400;6.692;2022-09-27T02:04:16;19.10;99.90
10213;DHT22;5150;51.400;6.692;2022-09-27T02:08:05;19.10;99.90
10213;DHT22;5150;51.400;6.692;2022-09-27T02:11:30;19.10;99.90
10213;DHT22;5150;51.400;6.692;2022-09-27T02:15:06;19.10;99.90
10213;DHT22;5150;51.400;6.692;2022-09-27T02:18:35;19.20;99.90
10213;DHT22;5150;51.400;6.692;2022-09-27T02:22:11;19.10;99.10
10213;DHT22;5150;51.400;6.692;2022-09-27T02:25:41;19.10;98.90
10213;DHT22;5150;51.400;6.692;2022-09-27T02:29:09;19.10;99.90
10213;DHT22;5150;51.400;6.692;2022-09-27T02:32:41;19.10;99.90
10213;DHT22;5150;51.400;6.692;2022-09-27T02:36:05;19.10;99.90
10213;DHT22;5150;51.400;6.692;2022-09-27T02:39:29;19.10;99.90
10213;DHT22;5150;51.400;6.692;2022-09-27T02:42:59;19.10;99.90
10213;DHT22;5150;51.400;6.692;2022-09-27T02:46:38;19.10;99.90
10213;DHT22;5150;51.400;6.692;2022-09-27T02:50:28;19.10;99.90
10213;DHT22;5150;51.400;6.692;2022-09-27T02:54:18;19.10;99.90
10213;DHT22;5150;51.400;6.692;2022-09-27T02:58:08;19.10;99.90
10213;DHT22;5150;51.400;6.692;2022-09-27T03:02:06;19.10;99.90
10213;DHT22;5150;51.400;6.692;2022-09-27T03:05:52;19.10;99.00
10213;DHT22;5150;51.400;6.692;2022-09-27T03:09:20;19.00;98.60
10213;DHT22;5150;51.400;6.692;2022-09-27T03:12:43;19.00;99.90
10213;DHT22;5150;51.400;6.692;2022-09-27T03:16:07;19.00;99.90
10213;DHT22;5150;51.400;6.692;2022-09-27T03:19:53;19.00;99.90
10213;DHT22;5150;51.400;6.692;2022-09-27T03:23:52;19.00;99.90
10213;DHT22;5150;51.400;6.692;2022-09-27T03:27:15;19.00;99.90
10213;DHT22;5150;51.400;6.692;2022-09-27T03:30:38;19.00;99.90
10213;DHT22;5150;51.400;6.692;2022-09-27T03:34:05;19.00;99.90
10213;DHT22;5150;51.400;6.692;2022-09-27T03:37:28;19.00;99.90
10213;DHT22;5150;51.400;6.692;2022-09-27T03:40:52;19.00;99.90
10213;DHT22;5150;51.400;6.692;2022-09-27T03:44:15;19.00;99.90
10213;DHT22;5150;51.400;6.692;2022-09-27T03:47:39;19.00;99.90
10213;DHT22;5150;51.400;6.692;2022-09-27T03:51:05;19.00;99.90
10213;DHT22;5150;51.400;6.692;2022-09-27T03:54:29;19.00;99.90
10213;DHT22;5150;51.400;6.692;2022-09-27T03:57:52;19.00;99.90
10213;DHT22;5150;51.400;6.692;2022-09-27T04:01:15;19.00;99.90
10213;DHT22;5150;51.400;6.692;2022-09-27T04:04:40;18.90;99.90
10213;DHT22;5150;51.400;6.692;2022-09-27T04:08:05;18.90;99.90
10213;DHT22;5150;51.400;6.692;2022-09-27T04:11:28;18.90;99.90
10213;DHT22;5150;51.400;6.692;2022-09-27T04:14:52;18.90;99.90
10213;DHT22;5150;51.400;6.692;2022-09-27T04:18:51;18.90;99.90
10213;DHT22;5150;51.400;6.692;2022-09-27T04:22:46;18.90;99.90
10213;DHT22;5150;51.400;6.692;2022-09-27T04:26:10;18.90;99.90
10213;DHT22;5150;51.400;6.692;2022-09-27T04:29:42;18.90;99.90
10213;DHT22;5150;51.400;6.692;2022-09-27T04:33:26;18.90;99.90
10213;DHT22;5150;51.400;6.692;2022-09-27T04:37:03;18.90;99.90
10213;DHT22;5150;51.400;6.692;2022-09-27T04:40:33;18.90;99.90
10213;DHT22;5150;51.400;6.692;2022-09-27T04:43:58;18.90;99.90
10213;DHT22;5150;51.400;6.692;2022-09-27T04:47:22;18.90;99.90
10213;DHT22;5150;51.400;6.692;2022-09-27T04:50:45;18.90;99.90
10213;DHT22;5150;51.400;6.692;2022-09-27T04:54:08;18.90;99.90
10213;DHT22;5150;51.400;6.692;2022-09-27T04:57:38;18.90;99.90
10213;DHT22;5150;51.400;6.692;2022-09-27T05:01:03;18.90;99.90
10213;DHT22;5150;51.400;6.692;2022-09-27T05:04:56;18.90;99.90
10213;DHT22;5150;51.400;6.692;2022-09-27T05:08:26;18.90;99.90
10213;DHT22;5150;51.400;6.692;2022-09-27T05:12:19;18.90;99.90
10213;DHT22;5150;51.400;6.692;2022-09-27T05:15:51;18.90;99.90
10213;DHT22;5150;51.400;6.692;2022-09-27T05:19:42;18.90;99.90
10213;DHT22;5150;51.400;6.692;2022-09-27T05:23:09;18.90;99.90
10213;DHT22;5150;51.400;6.692;2022-09-27T05:26:32;18.80;99.90
10213;DHT22;5150;51.400;6.692;2022-09-27T05:29:55;18.80;99.90
10213;DHT22;5150;51.400;6.692;2022-09-27T05:33:28;18.80;99.90
10213;DHT22;5150;51.400;6.692;2022-09-27T05:37:11;18.80;99.90
10213;DHT22;5150;51.400;6.692;2022-09-27T05:40:36;18.80;99.90
10213;DHT22;5150;51.400;6.692;2022-09-27T05:44:04;18.80;99.90
10213;DHT22;5150;51.400;6.692;2022-09-27T05:47:31;18.80;99.90
10213;DHT22;5150;51.400;6.692;2022-09-27T05:50:54;18.80;99.90
10213;DHT22;5150;51.400;6.692;2022-09-27T05:54:18;18.80;99.90
10213;DHT22;5150;51.400;6.692;2022-09-27T05:57:42;18.80;99.90
10213;DHT22;5150;51.400;6.692;2022-09-27T06:01:07;18.80;99.90
10213;DHT22;5150;51.400;6.692;2022-09-27T06:04:47;18.80;99.90
10213;DHT22;5150;51.400;6.692;2022-09-27T06:08:40;18.80;99.90
10213;DHT22;5150;51.400;6.692;2022-09-27T06:12:08;18.80;99.90
10213;DHT22;5150;51.400;6.692;2022-09-27T06:15:33;18.90;99.90
10213;DHT22;5150;51.400;6.692;2022-09-27T06:18:56;18.90;99.90
10213;DHT22;5150;51.400;6.692;2022-09-27T06:22:22;18.90;99.90
10213;DHT22;5150;51.400;6.692;2022-09-27T06:25:52;18.90;99.90
10213;DHT22;5150;51.400;6.692;2022-09-27T06:29:25;18.90;99.90
10213;DHT22;5150;51.400;6.692;2022-09-27T06:32:55;18.90;99.90
10213;DHT22;5150;51.400;6.692;2022-09-27T06:36:33;18.90;99.90
10213;DHT22;5150;51.400;6.692;2022-09-27T06:39:56;18.90;99.90
10213;DHT22;5150;51.400;6.692;2022-09-27T06:43:47;18.90;99.90
10213;DHT22;5150;51.400;6.692;2022-09-27T06:47:34;18.90;99.90
10213;DHT22;5150;51.400;6.692;2022-09-27T06:51:10;18.90;99.90
10213;DHT22;5150;51.400;6.692;2022-09-27T06:54:33;18.90;99.50
10213;DHT22;5150;51.400;6.692;2022-09-27T06:57:57;18.90;97.90
10213;DHT22;5150;51.400;6.692;2022-09-27T07:01:59;18.90;93.90
10213;DHT22;5150;51.400;6.692;2022-09-27T07:05:24;18.90;86.60
10213;DHT22;5150;51.400;6.692;2022-09-27T07:09:02;19.00;79.20
10213;DHT22;5150;51.400;6.692;2022-09-27T07:12:27;19.00;71.20
10213;DHT22;5150;51.400;6.692;2022-09-27T07:15:50;19.00;65.00
10213;DHT22;5150;51.400;6.692;2022-09-27T07:19:13;19.00;60.80
10213;DHT22;5150;51.400;6.692;2022-09-27T07:22:41;19.00;59.80
10213;DHT22;5150;51.400;6.692;2022-09-27T07:26:08;18.90;60.00
10213;DHT22;5150;51.400;6.692;2022-09-27T07:29:31;18.90;59.70
10213;DHT22;5150;51.400;6.692;2022-09-27T07:32:56;18.90;54.80
10213;DHT22;5150;51.400;6.692;2022-09-27T07:36:20;19.00;48.50
10213;DHT22;5150;51.400;6.692;2022-09-27T07:39:44;19.00;39.50
10213;DHT22;5150;51.400;6.692;2022-09-27T07:43:08;19.00;31.90
10213;DHT22;5150;51.400;6.692;2022-09-27T07:46:32;19.00;26.20
10213;DHT22;5150;51.400;6.692;2022-09-27T07:50:10;19.00;24.90
10213;DHT22;5150;51.400;6.692;2022-09-27T07:53:43;19.10;16.40
10213;DHT22;5150;51.400;6.692;2022-09-27T07:57:32;19.10;10.00
10213;DHT22;5150;51.400;6.692;2022-09-27T08:00:58;19.10;3.20
10213;DHT22;5150;51.400;6.692;2022-09-27T08:04:21;19.20;1.00
10213;DHT22;5150;51.400;6.692;2022-09-27T08:07:44;19.20;1.00
10213;DHT22;5150;51.400;6.692;2022-09-27T08:11:11;19.10;1.00
10213;DHT22;5150;51.400;6.692;2022-09-27T08:14:38;19.10;1.00
10213;DHT22;5150;51.400;6.692;2022-09-27T08:18:08;19.10;1.00
10213;DHT22;5150;51.400;6.692;2022-09-27T08:21:50;19.10;1.00
10213;DHT22;5150;51.400;6.692;2022-09-27T08:25:23;19.20;1.00
10213;DHT22;5150;51.400;6.692;2022-09-27T08:28:57;19.20;1.00
10213;DHT22;5150;51.400;6.692;2022-09-27T08:32:25;19.20;1.00
10213;DHT22;5150;51.400;6.692;2022-09-27T08:35:49;19.20;1.00
10213;DHT22;5150;51.400;6.692;2022-09-27T08:39:12;19.20;1.00
10213;DHT22;5150;51.400;6.692;2022-09-27T08:42:47;19.20;1.00
10213;DHT22;5150;51.400;6.692;2022-09-27T08:46:20;19.20;1.00
10213;DHT22;5150;51.400;6.692;2022-09-27T08:49:50;19.20;1.00
10213;DHT22;5150;51.400;6.692;2022-09-27T08:53:19;19.20;1.00
10213;DHT22;5150;51.400;6.692;2022-09-27T08:56:43;19.20;1.00
10213;DHT22;5150;51.400;6.692;2022-09-27T09:00:11;19.20;1.00
10213;DHT22;5150;51.400;6.692;2022-09-27T09:03:39;19.20;1.00
10213;DHT22;5150;51.400;6.692;2022-09-27T09:07:11;19.20;1.00
10213;DHT22;5150;51.400;6.692;2022-09-27T09:10:47;19.20;1.00
10213;DHT22;5150;51.400;6.692;2022-09-27T09:14:41;19.20;1.00
10213;DHT22;5150;51.400;6.692;2022-09-27T09:18:19;19.20;1.00
10213;DHT22;5150;51.400;6.692;2022-09-27T09:22:04;19.20;1.00
10213;DHT22;5150;51.400;6.692;2022-09-27T09:25:40;19.30;1.00
10213;DHT22;5150;51.400;6.692;2022-09-27T09:29:18;19.30;1.00
10213;DHT22;5150;51.400;6.692;2022-09-27T09:36:32;19.40;1.00
10213;DHT22;5150;51.400;6.692;2022-09-27T09:39:59;19.40;1.00
10213;DHT22;5150;51.400;6.692;2022-09-27T09:43:34;19.40;1.00
10213;DHT22;5150;51.400;6.692;2022-09-27T09:47:02;19.40;1.00
10213;DHT22;5150;51.400;6.692;2022-09-27T09:50:27;19.50;1.00
10213;DHT22;5150;51.400;6.692;2022-09-27T09:53:56;19.40;1.00
10213;DHT22;5150;51.400;6.692;2022-09-27T09:57:29;19.40;1.00
10213;DHT22;5150;51.400;6.692;2022-09-27T10:01:11;19.40;1.00
10213;DHT22;5150;51.400;6.692;2022-09-27T10:04:35;19.50;1.00
10213;DHT22;5150;51.400;6.692;2022-09-27T10:08:01;19.50;1.00
10213;DHT22;5150;51.400;6.692;2022-09-27T10:11:30;19.50;1.00
10213;DHT22;5150;51.400;6.692;2022-09-27T10:15:04;19.50;1.00
10213;DHT22;5150;51.400;6.692;2022-09-27T10:18:29;19.60;1.00
10213;DHT22;5150;51.400;6.692;2022-09-27T10:21:52;19.50;1.00
10213;DHT22;5150;51.400;6.692;2022-09-27T10:25:16;19.50;1.00
10213;DHT22;5150;51.400;6.692;2022-09-27T10:28:47;19.40;1.00
10213;DHT22;5150;51.400;6.692;2022-09-27T10:32:21;19.40;1.00
10213;DHT22;5150;51.400;6.692;2022-09-27T10:35:55;19.40;1.00
10213;DHT22;5150;51.400;6.692;2022-09-27T10:39:30;19.50;1.00
10213;DHT22;5150;51.400;6.692;2022-09-27T10:42:53;19.50;1.00
10213;DHT22;5150;51.400;6.692;2022-09-27T10:46:25;19.50;1.00
10213;DHT22;5150;51.400;6.692;2022-09-27T10:50:03;19.50;1.00
10213;DHT22;5150;51.400;6.692;2022-09-27T10:53:47;19.50;1.00
10213;DHT22;5150;51.400;6.692;2022-09-27T10:57:25;19.50;1.00
10213;DHT22;5150;51.400;6.692;2022-09-27T11:00:54;19.50;1.00
10213;DHT22;5150;51.400;6.692;2022-09-27T11:04:22;19.50;1.00
10213;DHT22;5150;51.400;6.692;2022-09-27T11:07:48;19.50;1.00
10213;DHT22;5150;51.400;6.692;2022-09-27T11:11:18;19.50;1.00
10213;DHT22;5150;51.400;6.692;2022-09-27T11:14:41;19.60;1.00
10213;DHT22;5150;51.400;6.692;2022-09-27T11:18:10;19.50;1.00
10213;DHT22;5150;51.400;6.692;2022-09-27T11:21:43;19.50;1.00
10213;DHT22;5150;51.400;6.692;2022-09-27T11:25:19;19.60;1.00
10213;DHT22;5150;51.400;6.692;2022-09-27T11:29:00;19.90;1.00
10213;DHT22;5150;51.400;6.692;2022-09-27T11:33:04;20.40;1.00
10213;DHT22;5150;51.400;6.692;2022-09-27T11:36:42;20.50;1.00
10213;DHT22;5150;51.400;6.692;2022-09-27T11:40:23;20.50;1.00
10213;DHT22;5150;51.400;6.692;2022-09-27T11:47:48;20.20;1.00
10213;DHT22;5150;51.400;6.692;2022-09-27T11:51:27;20.00;1.00
10213;DHT22;5150;51.400;6.692;2022-09-27T11:55:08;19.90;1.00
10213;DHT22;5150;51.400;6.692;2022-09-27T11:58:40;19.80;1.00
10213;DHT22;5150;51.400;6.692;2022-09-27T12:02:19;19.60;1.00
10213;DHT22;5150;51.400;6.692;2022-09-27T12:05:57;19.60;1.00
10213;DHT22;5150;51.400;6.692;2022-09-27T12:09:33;19.60;1.00
10213;DHT22;5150;51.400;6.692;2022-09-27T12:12:58;19.60;1.00
10213;DHT22;5150;51.400;6.692;2022-09-27T12:16:23;19.90;1.00
10213;DHT22;5150;51.400;6.692;2022-09-27T12:19:51;20.10;1.00
10213;DHT22;5150;51.400;6.692;2022-09-27T12:23:32;20.00;1.00
10213;DHT22;5150;51.400;6.692;2022-09-27T12:27:14;19.80;1.00
10213;DHT22;5150;51.400;6.692;2022-09-27T12:30:43;19.70;1.00
10213;DHT22;5150;51.400;6.692;2022-09-27T12:34:14;19.60;1.00
10213;DHT22;5150;51.400;6.692;2022-09-27T12:37:44;19.60;1.00
10213;DHT22;5150;51.400;6.692;2022-09-27T12:41:13;19.60;1.00
10213;DHT22;5150;51.400;6.692;2022-09-27T12:44:53;19.60;1.00
10213;DHT22;5150;51.400;6.692;2022-09-27T12:48:21;19.70;1.00
10213;DHT22;5150;51.400;6.692;2022-09-27T12:51:51;19.80;1.00
10213;DHT22;5150;51.400;6.692;2022-09-27T12:59:36;20.10;1.00
10213;DHT22;5150;51.400;6.692;2022-09-27T13:03:31;20.20;1.00
10213;DHT22;5150;51.400;6.692;2022-09-27T13:07:15;20.30;1.00
10213;DHT22;5150;51.400;6.692;2022-09-27T13:10:48;20.40;1.00
10213;DHT22;5150;51.400;6.692;2022-09-27T13:14:23;20.40;1.00
10213;DHT22;5150;51.400;6.692;2022-09-27T13:17:54;20.40;1.00
10213;DHT22;5150;51.400;6.692;2022-09-27T13:21:55;20.30;1.00
10213;DHT22;5150;51.400;6.692;2022-09-27T13:25:47;20.40;1.00
10213;DHT22;5150;51.400;6.692;2022-09-27T13:29:38;20.50;1.00
10213;DHT22;5150;51.400;6.692;2022-09-27T13:33:31;20.50;1.00
10213;DHT22;5150;51.400;6.692;2022-09-27T13:36:57;20.50;1.00
10213;DHT22;5150;51.400;6.692;2022-09-27T13:40:27;20.50;1.00
10213;DHT22;5150;51.400;6.692;2022-09-27T13:44:08;20.50;1.00
10213;DHT22;5150;51.400;6.692;2022-09-27T13:47:45;20.60;1.00
10213;DHT22;5150;51.400;6.692;2022-09-27T13:51:30;20.70;1.00
10213;DHT22;5150;51.400;6.692;2022-09-27T13:54:57;20.70;1.00
10213;DHT22;5150;51.400;6.692;2022-09-27T13:58:48;20.70;1.00
10213;DHT22;5150;51.400;6.692;2022-09-27T14:02:52;20.60;1.00
10213;DHT22;5150;51.400;6.692;2022-09-27T14:06:19;20.60;1.00
10213;DHT22;5150;51.400;6.692;2022-09-27T14:09:50;20.60;1.00
10213;DHT22;5150;51.400;6.692;2022-09-27T14:13:19;20.50;1.00
10213;DHT22;5150;51.400;6.692;2022-09-27T14:16:52;20.60;1.00
10213;DHT22;5150;51.400;6.692;2022-09-27T14:20:33;20.70;1.00
10213;DHT22;5150;51.400;6.692;2022-09-27T14:24:23;20.80;1.00
10213;DHT22;5150;51.400;6.692;2022-09-27T14:27:48;21.00;1.00
10213;DHT22;5150;51.400;6.692;2022-09-27T14:31:42;20.90;1.00
10213;DHT22;5150;51.400;6.692;2022-09-27T14:35:12;20.80;1.00
10213;DHT22;5150;51.400;6.692;2022-09-27T14:38:49;20.70;1.00
10213;DHT22;5150;51.400;6.692;2022-09-27T14:42:20;20.60;1.00
10213;DHT22;5150;51.400;6.692;2022-09-27T14:45:45;20.50;1.00
10213;DHT22;5150;51.400;6.692;2022-09-27T14:49:19;20.50;1.00
10213;DHT22;5150;51.400;6.692;2022-09-27T14:52:43;20.50;1.00
10213;DHT22;5150;51.400;6.692;2022-09-27T14:56:13;20.60;1.00
10213;DHT22;5150;51.400;6.692;2022-09-27T14:59:40;20.80;1.00
10213;DHT22;5150;51.400;6.692;2022-09-27T15:03:19;20.90;1.00
10213;DHT22;5150;51.400;6.692;2022-09-27T15:06:47;20.90;1.00
10213;DHT22;5150;51.400;6.692;2022-09-27T15:10:16;20.80;1.00
10213;DHT22;5150;51.400;6.692;2022-09-27T15:13:41;20.70;1.00
10213;DHT22;5150;51.400;6.692;2022-09-27T15:17:14;20.50;1.00
10213;DHT22;5150;51.400;6.692;2022-09-27T15:20:51;20.50;1.00
10213;DHT22;5150;51.400;6.692;2022-09-27T15:24:35;20.50;1.00
10213;DHT22;5150;51.400;6.692;2022-09-27T15:27:59;20.50;1.00
10213;DHT22;5150;51.400;6.692;2022-09-27T15:31:28;20.40;1.00
10213;DHT22;5150;51.400;6.692;2022-09-27T15:34:52;20.30;1.00
10213;DHT22;5150;51.400;6.692;2022-09-27T15:38:25;20.20;1.00
10213;DHT22;5150;51.400;6.692;2022-09-27T15:42:03;20.10;1.00
10213;DHT22;5150;51.400;6.692;2022-09-27T15:45:28;20.00;1.00
10213;DHT22;5150;51.400;6.692;2022-09-27T15:49:21;20.00;1.00
10213;DHT22;5150;51.400;6.692;2022-09-27T15:52:46;20.00;1.00
10213;DHT22;5150;51.400;6.692;2022-09-27T15:56:15;20.00;1.00
10213;DHT22;5150;51.400;6.692;2022-09-27T15:59:38;19.90;1.00
10213;DHT22;5150;51.400;6.692;2022-09-27T16:03:02;19.90;1.00
10213;DHT22;5150;51.400;6.692;2022-09-27T16:06:26;19.90;1.00
10213;DHT22;5150;51.400;6.692;2022-09-27T16:09:50;19.80;1.00
10213;DHT22;5150;51.400;6.692;2022-09-27T16:13:17;19.80;1.00
10213;DHT22;5150;51.400;6.692;2022-09-27T16:16:40;19.80;1.00
10213;DHT22;5150;51.400;6.692;2022-09-27T16:20:04;19.80;1.00
10213;DHT22;5150;51.400;6.692;2022-09-27T16:23:27;19.70;1.00
10213;DHT22;5150;51.400;6.692;2022-09-27T16:26:50;19.70;1.00
10213;DHT22;5150;51.400;6.692;2022-09-27T16:30:15;19.60;1.00
10213;DHT22;5150;51.400;6.692;2022-09-27T16:33:38;19.60;1.00
10213;DHT22;5150;51.400;6.692;2022-09-27T16:37:01;19.60;1.00
10213;DHT22;5150;51.400;6.692;2022-09-27T16:40:25;19.50;1.00
10213;DHT22;5150;51.400;6.692;2022-09-27T16:43:49;19.50;1.00
10213;DHT22;5150;51.400;6.692;2022-09-27T16:47:14;19.40;1.00
10213;DHT22;5150;51.400;6.692;2022-09-27T16:50:37;19.40;1.00
10213;DHT22;5150;51.400;6.692;2022-09-27T16:54:17;19.40;1.00
10213;DHT22;5150;51.400;6.692;2022-09-27T16:57:40;19.40;1.00
10213;DHT22;5150;51.400;6.692;2022-09-27T17:01:03;19.40;1.00
10213;DHT22;5150;51.400;6.692;2022-09-27T17:04:29;19.30;1.00
10213;DHT22;5150;51.400;6.692;2022-09-27T17:07:52;19.30;1.00
10213;DHT22;5150;51.400;6.692;2022-09-27T17:11:17;19.30;1.00
10213;DHT22;5150;51.400;6.692;2022-09-27T17:14:40;19.20;1.00
10213;DHT22;5150;51.400;6.692;2022-09-27T17:18:03;19.20;1.00
10213;DHT22;5150;51.400;6.692;2022-09-27T17:21:27;19.20;1.00
10213;DHT22;5150;51.400;6.692;2022-09-27T17:24:56;19.20;1.00
10213;DHT22;5150;51.400;6.692;2022-09-27T17:28:19;19.20;1.00
10213;DHT22;5150;51.400;6.692;2022-09-27T17:31:42;19.10;1.00
10213;DHT22;5150;51.400;6.692;2022-09-27T17:35:06;19.10;1.00
10213;DHT22;5150;51.400;6.692;2022-09-27T17:38:31;19.10;1.00
10213;DHT22;5150;51.400;6.692;2022-09-27T17:41:54;19.10;1.00
10213;DHT22;5150;51.400;6.692;2022-09-27T17:55:34;19.00;1.00
10213;DHT22;5150;51.400;6.692;2022-09-27T17:58:57;19.00;1.00
10213;DHT22;5150;51.400;6.692;2022-09-27T18:02:21;19.00;1.00
10213;DHT22;5150;51.400;6.692;2022-09-27T18:10:53;19.00;1.00
10213;DHT22;5150;51.400;6.692;2022-09-27T18:14:16;19.00;1.00
10213;DHT22;5150;51.400;6.692;2022-09-27T18:17:39;19.00;1.00
10213;DHT22;5150;51.400;6.692;2022-09-27T18:21:05;19.00;1.00
10213;DHT22;5150;51.400;6.692;2022-09-27T18:24:30;18.90;1.00
10213;DHT22;5150;51.400;6.692;2022-09-27T18:27:54;18.90;1.00
10213;DHT22;5150;51.400;6.692;2022-09-27T18:31:19;18.90;1.00
10213;DHT22;5150;51.400;6.692;2022-09-27T18:34:42;18.90;1.00
10213;DHT22;5150;51.400;6.692;2022-09-27T18:38:05;18.90;1.00
10213;DHT22;5150;51.400;6.692;2022-09-27T18:41:29;18.90;1.00
10213;DHT22;5150;51.400;6.692;2022-09-27T18:44:54;18.90;1.00
10213;DHT22;5150;51.400;6.692;2022-09-27T18:48:17;18.90;1.00
10213;DHT22;5150;51.400;6.692;2022-09-27T18:51:41;18.90;1.00
10213;DHT22;5150;51.400;6.692;2022-09-27T18:55:07;18.90;1.00
10213;DHT22;5150;51.400;6.692;2022-09-27T18:58:30;18.90;1.00
10213;DHT22;5150;51.400;6.692;2022-09-27T19:01:55;18.80;1.00
10213;DHT22;5150;51.400;6.692;2022-09-27T19:05:18;18.80;1.00
10213;DHT22;5150;51.400;6.692;2022-09-27T19:08:42;18.80;1.00
10213;DHT22;5150;51.400;6.692;2022-09-27T19:12:05;18.80;1.00
10213;DHT22;5150;51.400;6.692;2022-09-27T19:15:28;18.80;1.00
10213;DHT22;5150;51.400;6.692;2022-09-27T19:29:08;18.80;1.00
10213;DHT22;5150;51.400;6.692;2022-09-27T19:32:31;18.80;1.00
10213;DHT22;5150;51.400;6.692;2022-09-27T19:35:59;18.80;1.00
10213;DHT22;5150;51.400;6.692;2022-09-27T19:39:22;18.80;1.00
10213;DHT22;5150;51.400;6.692;2022-09-27T19:42:49;18.70;1.00
10213;DHT22;5150;51.400;6.692;2022-09-27T19:46:15;18.80;1.00
10213;DHT22;5150;51.400;6.692;2022-09-27T19:49:39;18.80;1.00
10213;DHT22;5150;51.400;6.692;2022-09-27T19:53:02;18.70;1.00
10213;DHT22;5150;51.400;6.692;2022-09-27T19:56:25;18.70;1.00
10213;DHT22;5150;51.400;6.692;2022-09-27T19:59:48;18.70;1.00
10213;DHT22;5150;51.400;6.692;2022-09-27T20:03:13;18.70;1.00
10213;DHT22;5150;51.400;6.692;2022-09-27T20:06:36;18.70;1.00
10213;DHT22;5150;51.400;6.692;2022-09-27T20:09:59;18.70;1.00
10213;DHT22;5150;51.400;6.692;2022-09-27T20:13:23;18.70;1.00
10213;DHT22;5150;51.400;6.692;2022-09-27T20:16:46;18.70;1.00
10213;DHT22;5150;51.400;6.692;2022-09-27T20:20:12;18.60;1.00
10213;DHT22;5150;51.400;6.692;2022-09-27T20:23:36;18.60;1.00
10213;DHT22;5150;51.400;6.692;2022-09-27T20:26:59;18.60;1.00
10213;DHT22;5150;51.400;6.692;2022-09-27T20:30:22;18.60;1.00
10213;DHT22;5150;51.400;6.692;2022-09-27T20:33:45;18.60;1.00
10213;DHT22;5150;51.400;6.692;2022-09-27T20:37:11;18.60;1.00
10213;DHT22;5150;51.400;6.692;2022-09-27T20:40:35;18.60;1.00
10213;DHT22;5150;51.400;6.692;2022-09-27T20:44:00;18.60;1.00
10213;DHT22;5150;51.400;6.692;2022-09-27T20:47:24;18.60;1.00
10213;DHT22;5150;51.400;6.692;2022-09-27T20:50:46;18.60;1.00
10213;DHT22;5150;51.400;6.692;2022-09-27T20:54:11;18.60;1.00
10213;DHT22;5150;51.400;6.692;2022-09-27T20:57:34;18.60;1.00
10213;DHT22;5150;51.400;6.692;2022-09-27T21:01:18;18.60;1.00
10213;DHT22;5150;51.400;6.692;2022-09-27T21:04:41;18.60;1.00
10213;DHT22;5150;51.400;6.692;2022-09-27T21:08:04;18.60;1.00
10213;DHT22;5150;51.400;6.692;2022-09-27T21:11:28;18.50;1.00
10213;DHT22;5150;51.400;6.692;2022-09-27T21:14:51;18.50;1.00
10213;DHT22;5150;51.400;6.692;2022-09-27T21:18:14;18.50;1.00
10213;DHT22;5150;51.400;6.692;2022-09-27T21:21:37;18.50;1.00
10213;DHT22;5150;51.400;6.692;2022-09-27T21:25:00;18.60;1.00
10213;DHT22;5150;51.400;6.692;2022-09-27T21:28:24;18.60;1.00
10213;DHT22;5150;51.400;6.692;2022-09-27T21:31:47;18.60;1.00
10213;DHT22;5150;51.400;6.692;2022-09-27T21:35:10;18.50;1.00
10213;DHT22;5150;51.400;6.692;2022-09-27T21:38:34;18.60;1.00
10213;DHT22;5150;51.400;6.692;2022-09-27T21:41:57;18.60;1.00
10213;DHT22;5150;51.400;6.692;2022-09-27T21:45:21;18.50;1.00
10213;DHT22;5150;51.400;6.692;2022-09-27T21:48:45;18.50;1.00
10213;DHT22;5150;51.400;6.692;2022-09-27T21:52:08;18.50;1.00
10213;DHT22;5150;51.400;6.692;2022-09-27T21:55:31;18.50;1.00
10213;DHT22;5150;51.400;6.692;2022-09-27T21:58:54;18.50;1.00
10213;DHT22;5150;51.400;6.692;2022-09-27T22:02:19;18.50;1.00
10213;DHT22;5150;51.400;6.692;2022-09-27T22:05:42;18.50;1.00
10213;DHT22;5150;51.400;6.692;2022-09-27T22:09:10;18.50;1.00
10213;DHT22;5150;51.400;6.692;2022-09-27T22:12:33;18.50;1.00
10213;DHT22;5150;51.400;6.692;2022-09-27T22:16:01;18.50;1.00
10213;DHT22;5150;51.400;6.692;2022-09-27T22:19:26;18.50;1.00
10213;DHT22;5150;51.400;6.692;2022-09-27T22:22:49;18.50;1.00
10213;DHT22;5150;51.400;6.692;2022-09-27T22:26:13;18.50;1.00
10213;DHT22;5150;51.400;6.692;2022-09-27T22:29:36;18.50;1.00
10213;DHT22;5150;51.400;6.692;2022-09-27T22:33:00;18.50;1.00
10213;DHT22;5150;51.400;6.692;2022-09-27T22:36:25;18.50;1.00
10213;DHT22;5150;51.400;6.692;2022-09-27T22:39:48;18.50;1.00
10213;DHT22;5150;51.400;6.692;2022-09-27T22:43:11;18.50;1.00
10213;DHT22;5150;51.400;6.692;2022-09-27T22:46:34;18.40;1.00
10213;DHT22;5150;51.400;6.692;2022-09-27T22:49:57;18.40;1.00
10213;DHT22;5150;51.400;6.692;2022-09-27T22:53:21;18.40;1.00
10213;DHT22;5150;51.400;6.692;2022-09-27T22:56:44;18.40;1.00
10213;DHT22;5150;51.400;6.692;2022-09-27T23:00:08;18.40;1.00
10213;DHT22;5150;51.400;6.692;2022-09-27T23:03:31;18.40;1.00
10213;DHT22;5150;51.400;6.692;2022-09-27T23:06:55;18.40;1.00
10213;DHT22;5150;51.400;6.692;2022-09-27T23:10:20;18.40;1.00
10213;DHT22;5150;51.400;6.692;2022-09-27T23:13:44;18.40;1.00
10213;DHT22;5150;51.400;6.692;2022-09-27T23:17:07;18.40;1.00
10213;DHT22;5150;51.400;6.692;2022-09-27T23:20:30;18.40;1.00